Time;durP1;ratioP1;P1;durP2;ratioP2;P2;SDS_P1;SDS_P2;PMS_P1;PMS_P2;Temp;Humidity;BMP_temperature;BMP_pressure;BME280_temperature;BME280_humidity;BME280_pressure;Samples;Min_cycle;Max_cycle;Signal;HPM_P1;HPM_P2
2022/07/19 00:01:24;;;;;;;6.25;3.17;;;18.10;99.90;;;-144.05;55.07;125687.94;6124291;23;20404;-86
2022/07/19 00:03:51;;;;;;;6.90;2.60;;;18.00;99.90;;;-144.05;55.14;125687.94;6123584;23;20014;-84
2022/07/19 00:06:17;;;;;;;4.93;2.70;;;18.00;99.90;;;-144.05;55.17;125687.94;6099622;23;20017;-82
2022/07/19 00:08:47;;;;;;;4.90;2.20;;;18.00;99.90;;;-144.05;55.34;125687.94;6125858;23;20021;-85
2022/07/19 00:11:16;;;;;;;6.55;2.63;;;18.00;99.90;;;-144.05;55.43;125687.94;6101381;23;20006;-86
2022/07/19 00:13:42;;;;;;;5.55;2.53;;;17.90;99.90;;;-144.05;55.78;125687.94;6125962;23;20368;-84
2022/07/19 00:16:08;;;;;;;4.22;2.58;;;17.80;99.90;;;-144.05;55.98;125687.94;6125956;23;20002;-87
2022/07/19 00:18:39;;;;;;;4.47;2.50;;;17.80;99.90;;;-144.05;56.14;125687.94;6125628;23;20017;-85
2022/07/19 00:21:07;;;;;;;6.63;3.05;;;17.70;99.90;;;-144.05;56.27;125687.94;6126021;23;20010;-84
2022/07/19 00:23:40;;;;;;;7.45;3.13;;;17.70;99.90;;;-144.05;56.30;125687.94;6101397;23;20013;-87
2022/07/19 00:26:07;;;;;;;7.43;3.00;;;17.70;99.90;;;-144.05;56.40;125687.94;6126496;23;20449;-83
2022/07/19 00:28:33;;;;;;;8.43;2.80;;;17.60;99.90;;;-144.05;56.64;125687.94;6127664;23;20013;-84
2022/07/19 00:30:59;;;;;;;5.13;2.53;;;17.60;99.90;;;-144.05;56.91;125687.94;6125733;23;20041;-86
2022/07/19 00:33:25;;;;;;;4.13;2.38;;;17.50;99.90;;;-144.05;57.39;125687.94;6124866;23;20013;-83
2022/07/19 00:35:52;;;;;;;3.35;2.50;;;17.40;99.90;;;-144.05;57.71;125687.94;6125866;23;20033;-83
2022/07/19 00:38:18;;;;;;;3.75;2.47;;;17.40;99.90;;;-144.05;58.02;125687.94;6125769;23;20002;-85
2022/07/19 00:40:44;;;;;;;6.00;2.50;;;17.40;99.90;;;-144.05;58.33;125687.94;6125253;23;20395;-84
2022/07/19 00:43:14;;;;;;;4.40;2.90;;;17.30;99.90;;;-144.05;58.38;125687.94;6124886;23;20463;-86
2022/07/19 00:45:40;;;;;;;4.97;2.35;;;17.30;99.90;;;-144.05;58.62;125687.94;6125399;23;20014;-84
2022/07/19 00:48:07;;;;;;;6.00;3.15;;;17.20;99.90;;;-144.05;58.97;125687.94;6127339;23;20006;-84
2022/07/19 00:50:34;;;;;;;3.60;2.55;;;17.20;99.90;;;-144.05;59.31;125687.94;6101031;23;20036;-84
2022/07/19 00:53:05;;;;;;;5.80;2.70;;;17.10;99.90;;;-144.05;59.66;125687.94;6124941;23;20010;-85
2022/07/19 00:55:38;;;;;;;4.95;2.75;;;17.10;99.90;;;-144.05;59.62;125687.94;6125062;23;20005;-84
2022/07/19 00:58:04;;;;;;;4.78;3.00;;;17.10;99.90;;;-144.05;59.75;125687.94;6101311;23;20389;-85
2022/07/19 01:00:37;;;;;;;5.05;2.50;;;17.10;99.90;;;-144.05;59.98;125687.94;6101561;23;20436;-85
2022/07/19 01:03:03;;;;;;;5.40;2.80;;;17.00;99.90;;;-144.05;59.83;125687.94;6125428;23;20053;-84
2022/07/19 01:05:29;;;;;;;4.88;2.60;;;17.00;99.90;;;-144.05;59.84;125687.94;6125477;23;20017;-83
2022/07/19 01:07:55;;;;;;;5.00;2.80;;;17.00;99.90;;;-144.05;60.01;125687.94;6101099;23;20017;-80
2022/07/19 01:10:21;;;;;;;4.53;2.40;;;17.00;99.90;;;-144.05;60.27;125687.94;6124642;23;20063;-84
2022/07/19 01:12:55;;;;;;;5.22;2.58;;;17.00;99.90;;;-144.05;60.23;125687.94;6100808;23;20010;-83
2022/07/19 01:15:27;;;;;;;4.85;2.65;;;16.90;99.90;;;-144.05;60.53;125687.94;6100887;23;20108;-86
2022/07/19 01:17:56;;;;;;;2.97;2.33;;;16.90;99.90;;;-144.05;60.60;125687.94;6125263;23;20010;-85
2022/07/19 01:20:24;;;;;;;5.90;2.83;;;16.80;99.90;;;-144.05;60.55;125687.94;6125372;23;20100;-86
2022/07/19 01:22:50;;;;;;;7.03;3.22;;;16.80;99.90;;;-144.05;60.63;125687.94;6124835;23;20017;-84
2022/07/19 01:25:17;;;;;;;5.30;2.60;;;16.80;99.90;;;-144.05;60.67;125687.94;6125823;23;20006;-84
2022/07/19 01:27:49;;;;;;;3.72;2.40;;;16.70;99.90;;;-144.05;61.22;125687.94;6124649;23;20021;-83
2022/07/19 01:30:22;;;;;;;10.70;3.28;;;16.70;99.90;;;-144.05;61.53;125687.94;6126984;23;20462;-84
2022/07/19 01:32:54;;;;;;;7.22;2.58;;;16.70;99.90;;;-144.05;61.75;125687.94;6100276;23;20437;-83
2022/07/19 01:35:22;;;;;;;5.32;2.95;;;16.70;99.90;;;-144.05;61.72;125687.94;6126890;23;20029;-87
2022/07/19 01:37:52;;;;;;;5.85;2.50;;;16.70;99.90;;;-144.05;61.97;125687.94;6125603;23;20380;-83
2022/07/19 01:40:20;;;;;;;4.57;2.75;;;16.60;99.90;;;-144.05;61.97;125687.94;6126417;23;20017;-85
2022/07/19 01:42:51;;;;;;;5.85;2.72;;;16.60;99.90;;;-144.05;62.30;125687.94;6125837;23;20029;-85
2022/07/19 01:45:21;;;;;;;4.60;2.45;;;16.50;99.90;;;-144.05;62.58;125687.94;6127718;23;20490;-86
2022/07/19 01:47:52;;;;;;;5.63;2.67;;;16.50;99.90;;;-144.05;62.77;125687.94;6123009;23;20077;-77
2022/07/19 01:50:25;;;;;;;5.78;2.83;;;16.50;99.90;;;-144.05;62.95;125687.94;6138194;23;20010;-83
2022/07/19 01:53:11;;;;;;;8.90;2.67;;;16.50;99.90;;;-144.05;63.27;125687.94;6101877;23;20065;-85
2022/07/19 01:55:38;;;;;;;4.05;2.88;;;16.50;99.90;;;-144.05;63.41;125687.94;6101524;23;20002;-82
2022/07/19 01:58:07;;;;;;;5.35;2.78;;;16.40;99.90;;;-144.05;63.68;125687.94;6124353;23;20018;-86
2022/07/19 02:00:33;;;;;;;6.15;3.00;;;16.40;99.90;;;-144.05;63.98;125687.94;6099572;23;20458;-82
2022/07/19 02:02:59;;;;;;;4.85;2.60;;;16.40;99.90;;;-144.05;64.09;125687.94;6124484;23;20038;-82
2022/07/19 02:05:27;;;;;;;4.20;2.80;;;16.30;99.90;;;-144.05;64.05;125687.94;6124765;23;20013;-80
2022/07/19 02:08:00;;;;;;;4.55;2.75;;;16.30;99.90;;;-144.05;64.27;125687.94;6125858;23;20310;-83
2022/07/19 02:10:30;;;;;;;8.63;3.17;;;16.20;99.90;;;-144.05;64.33;125687.94;6123860;23;20017;-83
2022/07/19 02:12:56;;;;;;;10.10;3.55;;;16.20;99.90;;;-144.05;64.74;125687.94;6124066;23;20017;-84
2022/07/19 02:15:23;;;;;;;9.50;2.80;;;16.10;99.90;;;-144.05;64.50;125687.94;6124683;23;20014;-84
2022/07/19 02:17:55;;;;;;;6.78;2.75;;;16.20;99.90;;;-144.05;64.45;125687.94;6099819;23;20088;-85
2022/07/19 02:20:22;;;;;;;7.88;3.35;;;16.10;99.90;;;-144.05;64.27;125687.94;6124263;23;20017;-82
2022/07/19 02:22:48;;;;;;;8.38;3.30;;;16.20;99.90;;;-144.05;64.33;125687.94;6123390;23;20095;-83
2022/07/19 02:25:21;;;;;;;8.70;3.42;;;16.20;99.90;;;-144.05;64.19;125687.94;6124854;23;20010;-83
2022/07/19 02:27:53;;;;;;;9.45;3.08;;;16.20;99.90;;;-144.05;64.30;125687.94;6124529;23;20006;-85
2022/07/19 02:30:20;;;;;;;6.22;2.92;;;16.20;99.90;;;-144.05;64.35;125687.94;6100163;23;20313;-87
2022/07/19 02:32:46;;;;;;;7.47;3.22;;;16.10;99.90;;;-144.05;64.83;125687.94;6123936;23;20278;-84
2022/07/19 02:35:23;;;;;;;8.23;3.47;;;16.10;99.90;;;-144.05;64.91;125687.94;6099889;23;20085;-83
2022/07/19 02:37:51;;;;;;;5.18;3.33;;;16.00;99.90;;;-144.05;65.47;125687.94;6124516;23;20016;-85
2022/07/19 02:40:19;;;;;;;6.03;3.30;;;16.00;99.90;;;-144.05;65.40;125687.94;6124501;23;20010;-85
2022/07/19 02:42:55;;;;;;;;;;;;;;;;;;;;;
2022/07/19 02:45:21;;;;;;;4.95;2.95;;;15.90;99.90;;;-144.05;65.12;125687.94;6125910;23;20074;-85
2022/07/19 02:47:48;;;;;;;4.53;3.10;;;16.00;99.90;;;-144.05;64.91;125687.94;6124431;23;20006;-84
2022/07/19 02:50:20;;;;;;;4.18;3.08;;;16.00;99.90;;;-144.05;65.23;125687.94;6099829;23;20006;-84
2022/07/19 02:53:00;;;;;;;4.22;2.45;;;15.90;99.90;;;-144.05;65.32;125687.94;6125966;23;20009;-86
2022/07/19 02:55:39;;;;;;;5.65;3.13;;;15.90;99.90;;;-144.05;65.46;125687.94;6125088;23;20002;-85
2022/07/19 02:58:12;;;;;;;5.57;2.88;;;15.90;99.90;;;-144.05;65.43;125687.94;6099379;23;20436;-84
2022/07/19 03:00:47;;;;;;;6.28;3.17;;;15.90;99.90;;;-144.05;65.80;125687.94;6124551;23;20033;-85
2022/07/19 03:06:01;;;;;;;5.70;3.10;;;15.90;99.90;;;-144.05;65.29;125687.94;6125884;23;20053;-85
2022/07/19 03:08:36;;;;;;;4.80;2.60;;;15.90;99.90;;;-144.05;64.98;125687.94;6124258;23;20384;-84
2022/07/19 03:11:05;;;;;;;5.57;2.80;;;15.80;99.90;;;-144.05;65.02;125687.94;6124531;23;20013;-85
2022/07/19 03:13:48;;;;;;;3.90;2.72;;;15.70;99.90;;;-144.05;65.15;125687.94;6124891;23;20009;-86
2022/07/19 03:16:28;;;;;;;3.72;2.60;;;15.90;99.90;;;-144.05;65.17;125687.94;6124044;23;20033;-86
2022/07/19 03:19:08;;;;;;;5.03;2.47;;;15.90;99.90;;;-144.05;64.92;125687.94;6099926;23;20440;-86
2022/07/19 03:21:41;;;;;;;6.95;3.10;;;15.90;99.90;;;-144.05;64.68;125687.94;6100450;23;20010;-84
2022/07/19 03:24:12;;;;;;;6.88;2.85;;;15.90;99.90;;;-144.05;64.51;125687.94;6124914;23;20042;-86
2022/07/19 03:26:54;;;;;;;4.95;2.60;;;15.90;99.90;;;-144.05;64.72;125687.94;6100343;23;20010;-86
2022/07/19 03:29:22;;;;;;;4.90;2.90;;;16.00;99.90;;;-144.05;64.70;125687.94;6123439;23;20017;-86
2022/07/19 03:31:58;;;;;;;5.38;2.83;;;16.00;99.90;;;-144.05;64.75;125687.94;6124429;23;20069;-82
2022/07/19 03:34:28;;;;;;;;;;;15.90;99.90;;;-144.05;64.67;125687.94;6101353;23;20428;-85
2022/07/19 03:37:25;;;;;;;;;;;;;;;;;;;;;
2022/07/19 03:40:47;;;;;;;4.22;2.50;;;15.80;99.90;;;-144.05;64.84;125687.94;6121039;23;20071;-83
2022/07/19 03:43:16;;;;;;;5.15;3.17;;;15.80;99.90;;;-144.05;65.04;125687.94;6097334;23;20014;-86
2022/07/19 03:45:45;;;;;;;4.32;2.78;;;15.80;99.90;;;-144.05;65.50;125687.94;6112867;23;20025;-81
2022/07/19 03:48:17;;;;;;;5.80;2.80;;;15.70;99.90;;;-144.05;65.72;125687.94;6149973;23;20014;-85
2022/07/19 03:50:43;;;;;;;3.60;2.92;;;15.70;99.90;;;-144.05;66.05;125687.94;6122486;23;20002;-82
2022/07/19 03:53:12;;;;;;;7.82;2.78;;;15.70;99.90;;;-144.05;66.05;125687.94;6146667;23;20037;-85
2022/07/19 03:55:38;;;;;;;7.22;3.33;;;15.60;99.90;;;-144.05;65.85;125687.94;6102982;23;20048;-85
2022/07/19 03:58:04;;;;;;;6.30;2.97;;;15.70;99.90;;;-144.05;65.53;125687.94;6123447;23;20022;-88
2022/07/19 04:00:30;;;;;;;4.93;2.67;;;15.70;99.90;;;-144.05;65.30;125687.94;6101112;23;20020;-87
2022/07/19 04:02:57;;;;;;;5.13;3.28;;;15.80;99.90;;;-144.05;64.99;125687.94;6100015;23;20033;-86
2022/07/19 04:05:23;;;;;;;5.32;3.13;;;15.80;99.90;;;-144.05;64.87;125687.94;6100713;23;20010;-86
2022/07/19 04:07:49;;;;;;;4.97;3.30;;;15.80;99.90;;;-144.05;64.99;125687.94;6126288;23;20422;-87
2022/07/19 04:10:15;;;;;;;3.38;2.60;;;15.90;99.90;;;-144.05;65.29;125687.94;6100504;23;20360;-85
2022/07/19 04:12:41;;;;;;;3.67;2.78;;;15.90;99.90;;;-144.05;65.33;125687.94;6126751;23;20002;-87
2022/07/19 04:15:08;;;;;;;3.33;2.25;;;15.90;99.90;;;-144.05;65.36;125687.94;6127147;23;20012;-85
2022/07/19 04:17:34;;;;;;;5.07;2.78;;;15.90;99.90;;;-144.05;65.30;125687.94;6126481;23;20002;-87
2022/07/19 04:20:00;;;;;;;7.45;3.10;;;15.90;99.90;;;-144.05;65.24;125687.94;6100501;23;20065;-86
2022/07/19 04:22:26;;;;;;;5.03;3.10;;;16.00;99.90;;;-144.05;65.18;125687.94;6126308;23;20100;-86
2022/07/19 04:24:52;;;;;;;3.38;2.50;;;16.00;99.90;;;-144.05;65.33;125687.94;6127293;23;20359;-88
2022/07/19 04:27:18;;;;;;;3.78;2.65;;;16.10;99.90;;;-144.05;64.97;125687.94;6127166;23;20013;-85
2022/07/19 04:29:44;;;;;;;3.53;2.67;;;16.10;99.90;;;-144.05;64.84;125687.94;6126088;23;20444;-86
2022/07/19 04:32:10;;;;;;;3.95;2.67;;;16.10;99.90;;;-144.05;64.83;125687.94;6125750;23;20105;-86
2022/07/19 04:34:36;;;;;;;4.95;2.67;;;16.20;99.90;;;-144.05;64.39;125687.94;6125735;23;20006;-85
2022/07/19 04:37:01;;;;;;;4.45;3.00;;;16.30;99.90;;;-144.05;64.36;125687.94;6127941;23;20082;-84
2022/07/19 04:39:27;;;;;;;7.00;2.97;;;16.30;99.90;;;-144.05;64.13;125687.94;6127373;23;20106;-87
2022/07/19 04:41:53;;;;;;;5.95;2.95;;;16.40;99.90;;;-144.05;64.23;125687.94;6127960;23;20025;-84
2022/07/19 04:44:19;;;;;;;4.75;2.75;;;16.50;99.90;;;-144.05;63.97;125687.94;6128180;23;20021;-87
2022/07/19 04:46:45;;;;;;;5.55;2.72;;;16.50;99.90;;;-144.05;63.53;125687.94;6125564;23;20016;-86
2022/07/19 04:49:11;;;;;;;4.97;2.75;;;16.60;99.90;;;-144.05;63.05;125687.94;6125239;23;20010;-87
2022/07/19 04:51:37;;;;;;;4.85;2.70;;;16.70;99.90;;;-144.05;62.91;125687.94;6101325;23;20483;-87
2022/07/19 04:54:03;;;;;;;5.75;3.05;;;16.90;99.90;;;-144.05;62.62;125687.94;6102560;23;20006;-88
2022/07/19 04:56:28;;;;;;;5.05;2.92;;;16.90;99.90;;;-144.05;62.51;125687.94;6128951;23;20009;-87
2022/07/19 04:58:54;;;;;;;4.53;2.17;;;17.00;99.90;;;-144.05;62.35;125687.94;6102524;23;20404;-87
2022/07/19 05:01:20;;;;;;;3.80;2.20;;;17.10;99.90;;;-144.05;62.16;125687.94;6127541;23;20074;-86
2022/07/19 05:03:46;;;;;;;6.97;2.80;;;17.20;99.90;;;-144.05;61.95;125687.94;6128680;23;20006;-87
2022/07/19 05:06:12;;;;;;;6.30;3.05;;;17.40;99.90;;;-144.05;61.86;125687.94;6127363;23;20093;-85
2022/07/19 05:08:38;;;;;;;4.47;2.40;;;17.70;99.90;;;-144.05;61.47;125687.94;6128933;23;20041;-86
2022/07/19 05:11:05;;;;;;;4.10;2.10;;;17.90;99.90;;;-144.05;60.82;125687.94;6129092;23;20005;-87
2022/07/19 05:13:31;;;;;;;6.22;2.40;;;18.10;99.90;;;-144.05;60.05;125687.94;6129955;23;20018;-87
2022/07/19 05:15:57;;;;;;;5.35;2.47;;;18.30;99.90;;;-144.05;59.30;125687.94;6104606;23;20002;-87
2022/07/19 05:18:23;;;;;;;5.38;2.70;;;18.60;99.90;;;-144.05;58.92;125687.94;6130629;23;20006;-88
2022/07/19 05:20:49;;;;;;;6.28;2.70;;;18.80;99.90;;;-144.05;58.44;125687.94;6130136;23;20439;-86
2022/07/19 05:23:15;;;;;;;8.70;2.50;;;19.00;99.90;;;-144.05;57.58;125687.94;6129289;23;20006;-88
2022/07/19 05:25:41;;;;;;;4.88;2.25;;;19.30;99.90;;;-144.05;57.06;125687.94;6131012;23;20072;-87
2022/07/19 05:28:08;;;;;;;7.30;2.50;;;19.50;99.90;;;-144.05;56.29;125687.94;6108946;23;20036;-88
2022/07/19 05:30:34;;;;;;;9.45;3.00;;;19.80;99.90;;;-144.05;55.47;125687.94;6123573;23;20017;-85
2022/07/19 05:33:00;;;;;;;6.78;2.53;;;20.10;99.90;;;-144.05;55.06;125687.94;6144996;23;20010;-85
2022/07/19 05:35:26;;;;;;;8.63;3.25;;;20.30;99.90;;;-144.05;53.67;125687.94;6108928;23;20010;-87
2022/07/19 05:37:52;;;;;;;7.38;2.95;;;20.60;99.90;;;-144.05;52.75;125687.94;6103096;23;20117;-86
2022/07/19 05:40:18;;;;;;;5.32;2.83;;;20.80;99.90;;;-144.05;51.40;125687.94;6127143;23;20041;-86
2022/07/19 05:42:44;;;;;;;7.75;3.47;;;21.20;99.90;;;-144.05;50.56;125687.94;6129464;23;20009;-85
2022/07/19 05:45:10;;;;;;;9.75;3.45;;;21.50;99.90;;;-144.05;49.30;125687.94;6134782;23;20079;-84
2022/07/19 05:47:36;;;;;;;8.40;3.17;;;21.70;99.90;;;-144.05;48.70;125687.94;6120286;23;20006;-83
2022/07/19 05:50:03;;;;;;;7.25;3.17;;;21.90;99.90;;;-144.05;48.25;125687.94;6143452;23;20041;-84
2022/07/19 05:52:29;;;;;;;8.02;3.38;;;22.20;99.90;;;-144.05;47.98;125687.94;6128775;23;20006;-85
2022/07/19 05:54:55;;;;;;;12.07;3.33;;;22.40;99.90;;;-144.05;47.40;125687.94;6130549;23;20009;-84
2022/07/19 05:57:20;;;;;;;6.07;3.17;;;22.60;99.90;;;-144.05;47.41;125687.94;6129668;23;20328;-86
2022/07/19 05:59:46;;;;;;;6.50;3.53;;;22.90;99.90;;;-144.05;46.98;125687.94;6104061;23;20006;-84
2022/07/19 06:02:13;;;;;;;9.98;3.65;;;23.20;99.90;;;-144.05;45.00;125687.94;6129072;23;20010;-86
2022/07/19 06:04:38;;;;;;;8.93;3.72;;;23.50;99.90;;;-144.05;44.43;125687.94;6130250;23;20016;-85
2022/07/19 06:07:04;;;;;;;8.70;4.07;;;23.70;99.90;;;-144.05;43.44;125687.94;6129002;23;20113;-87
2022/07/19 06:09:30;;;;;;;6.28;3.15;;;23.90;99.90;;;-144.05;43.60;125687.94;6128563;23;20037;-88
2022/07/19 06:11:56;;;;;;;6.28;3.10;;;24.20;99.90;;;-144.05;43.79;125687.94;6130267;23;20067;-86
2022/07/19 06:14:22;;;;;;;10.10;3.90;;;24.40;99.90;;;-144.05;43.20;125687.94;6131407;23;20002;-87
2022/07/19 06:16:48;;;;;;;13.18;4.13;;;24.70;99.90;;;-144.05;41.63;125687.94;6105469;23;20006;-87
2022/07/19 06:19:14;;;;;;;8.65;3.63;;;24.90;99.90;;;-144.05;41.25;125687.94;6129370;23;20454;-86
2022/07/19 06:21:40;;;;;;;8.75;2.90;;;25.20;99.90;;;-144.05;40.28;125687.94;6130000;23;20018;-85
2022/07/19 06:24:06;;;;;;;6.35;3.17;;;25.50;99.90;;;-144.05;38.99;125687.94;6129104;23;20014;-85
2022/07/19 06:26:32;;;;;;;9.50;3.35;;;25.80;99.90;;;-144.05;38.13;125687.94;6129657;23;20014;-85
2022/07/19 06:28:58;;;;;;;11.15;3.25;;;26.00;99.90;;;-144.05;38.79;125687.94;6131119;23;20013;-85
2022/07/19 06:31:24;;;;;;;9.77;3.67;;;26.40;99.90;;;-144.05;38.74;125687.94;6129055;23;20018;-89
2022/07/19 06:33:52;;;;;;;11.20;3.58;;;26.60;99.90;;;-144.05;38.50;125687.94;6131071;23;20033;-86
2022/07/19 06:36:19;;;;;;;7.53;2.97;;;26.90;99.90;;;-144.05;38.08;125687.94;6104424;23;20479;-90
2022/07/19 06:38:47;;;;;;;10.60;3.28;;;27.20;99.90;;;-144.05;37.46;125687.94;6129885;23;20074;-86
2022/07/19 06:41:15;;;;;;;10.35;2.30;;;27.50;99.90;;;-144.05;35.19;125687.94;6128435;23;20014;-88
2022/07/19 06:43:41;;;;;;;6.07;2.20;;;27.70;94.20;;;-144.05;32.92;125687.94;6129769;23;20006;-87
2022/07/19 06:46:08;;;;;;;8.05;2.00;;;28.10;83.80;;;-144.05;31.28;125687.94;6129929;23;20440;-89
2022/07/19 06:48:35;;;;;;;6.32;2.53;;;28.30;77.20;;;-144.05;33.54;125687.94;6129259;23;20025;-88
2022/07/19 06:51:01;;;;;;;4.25;2.25;;;28.50;87.10;;;-144.05;31.74;125687.94;6128052;23;20021;-88
2022/07/19 06:53:27;;;;;;;4.13;2.15;;;28.80;75.30;;;-144.05;29.24;125687.94;6128723;23;20332;-86
2022/07/19 06:55:53;;;;;;;4.50;1.92;;;29.10;66.10;;;-144.05;28.76;125687.94;6126933;23;20006;-86
2022/07/19 06:58:19;;;;;;;2.25;1.77;;;29.30;63.20;;;-144.05;28.90;125687.94;6127690;23;20010;-87
2022/07/19 07:00:48;;;;;;;4.93;2.17;;;29.60;63.20;;;-144.05;28.01;125687.94;6102051;23;20329;-88
2022/07/19 07:03:17;;;;;;;3.63;1.75;;;29.80;59.60;;;-144.05;28.51;125687.94;6126488;23;20010;-89
2022/07/19 07:05:43;;;;;;;6.05;2.20;;;30.10;61.30;;;-144.05;28.24;125687.94;6125896;23;20033;-88
2022/07/19 07:08:09;;;;;;;3.47;2.00;;;30.40;60.20;;;-144.05;27.81;125687.94;6125630;23;20038;-85
2022/07/19 07:10:36;;;;;;;5.32;2.13;;;30.70;58.50;;;-144.05;27.13;125687.94;6126382;23;20010;-85
2022/07/19 07:13:02;;;;;;;4.25;2.38;;;30.90;57.10;;;-144.05;27.47;125687.94;6126507;23;20006;-86
2022/07/19 07:15:28;;;;;;;5.57;2.00;;;31.30;57.00;;;-144.05;27.05;125687.94;6127594;23;20005;-85
2022/07/19 07:17:55;;;;;;;6.25;2.45;;;31.30;56.20;;;-144.05;26.86;125687.94;6127526;23;20072;-86
2022/07/19 07:20:21;;;;;;;5.97;2.03;;;31.50;55.50;;;-144.05;26.58;125687.94;6127880;23;20555;-89
2022/07/19 07:22:47;;;;;;;5.65;2.00;;;31.70;54.60;;;-144.05;26.43;125687.94;6128322;23;20006;-86
2022/07/19 07:25:13;;;;;;;4.00;1.88;;;31.90;53.80;;;-144.05;25.93;125687.94;6129678;23;20077;-88
2022/07/19 07:27:39;;;;;;;7.05;1.98;;;32.30;52.40;;;-144.05;25.91;125687.94;6102664;23;20339;-90
2022/07/19 07:30:06;;;;;;;7.45;2.30;;;32.30;53.20;;;-144.05;26.01;125687.94;6127406;23;20048;-88
2022/07/19 07:32:32;;;;;;;4.75;2.17;;;32.50;52.80;;;-144.05;26.61;125687.94;6127980;23;20010;-87
2022/07/19 07:34:58;;;;;;;5.95;2.40;;;32.80;54.50;;;-144.05;26.38;125687.94;6128429;23;20014;-86
2022/07/19 07:37:26;;;;;;;4.53;2.00;;;33.10;54.60;;;-144.05;25.51;125687.94;6129741;23;20465;-85
2022/07/19 07:39:54;;;;;;;3.85;1.90;;;33.30;51.00;;;-144.05;25.33;125687.94;6102994;23;20093;-89
2022/07/19 07:42:21;;;;;;;4.45;1.88;;;33.50;50.80;;;-144.05;25.25;125687.94;6129713;23;20029;-90
2022/07/19 07:44:46;;;;;;;5.40;1.90;;;33.50;50.20;;;-144.05;25.33;125687.94;6127474;23;20010;-87
2022/07/19 07:47:13;;;;;;;7.85;2.38;;;33.60;50.80;;;-144.05;25.92;125687.94;6128710;23;20019;-86
2022/07/19 07:49:39;;;;;;;11.25;2.42;;;33.80;53.00;;;-144.05;25.75;125687.94;6104314;23;20033;-89
2022/07/19 07:52:07;;;;;;;6.57;2.22;;;34.20;50.80;;;-144.05;25.89;125687.94;6128676;23;20017;-89
2022/07/19 07:54:34;;;;;;;6.60;2.30;;;34.50;52.50;;;-144.05;24.50;125687.94;6129595;23;20451;-86
2022/07/19 07:57:00;;;;;;;12.30;2.42;;;34.50;48.60;;;-144.05;24.51;125687.94;6139846;23;20018;-88
2022/07/19 07:59:26;;;;;;;5.13;2.15;;;34.70;48.50;;;-144.05;24.57;125687.94;6134304;23;20093;-89
2022/07/19 08:01:52;;;;;;;7.93;2.65;;;34.90;48.80;;;-144.05;23.47;125687.94;6131321;23;20010;-89
2022/07/19 08:04:18;;;;;;;3.53;1.98;;;34.70;46.00;;;-144.05;23.71;125687.94;6129909;23;20008;-85
2022/07/19 08:06:44;;;;;;;8.07;2.05;;;34.80;46.70;;;-144.05;23.91;125687.94;6131653;23;20056;-89
2022/07/19 08:09:09;;;;;;;4.80;2.00;;;34.90;46.70;;;-144.05;23.83;125687.94;6106848;23;20060;-89
2022/07/19 08:11:35;;;;;;;4.47;2.50;;;35.20;47.10;;;-144.05;22.85;125687.94;6130710;23;20021;-89
2022/07/19 08:14:02;;;;;;;12.32;2.58;;;35.40;45.00;;;-144.05;23.38;125687.94;6135449;23;20499;-88
2022/07/19 08:16:28;;;;;;;6.38;2.47;;;35.60;46.20;;;-144.05;23.07;125687.94;6107978;23;20014;-90
2022/07/19 08:18:54;;;;;;;5.78;2.70;;;35.70;44.80;;;-144.05;23.23;125687.94;6111091;23;20033;-88
2022/07/19 08:21:20;;;;;;;12.93;2.53;;;35.90;46.00;;;-144.05;23.27;125687.94;6131413;23;20068;-88
2022/07/19 08:23:46;;;;;;;4.75;2.15;;;35.80;45.00;;;-144.05;22.69;125687.94;6128300;23;20044;-87
2022/07/19 08:26:12;;;;;;;3.53;2.10;;;36.00;43.40;;;-144.05;22.90;125687.94;6127818;23;20376;-88
2022/07/19 08:28:38;;;;;;;7.30;2.28;;;36.10;44.10;;;-144.05;21.76;125687.94;6104135;23;20121;-89
2022/07/19 08:31:04;;;;;;;4.03;1.95;;;36.10;41.20;;;-144.05;22.37;125687.94;6133356;23;20057;-87
2022/07/19 08:33:30;;;;;;;7.05;2.38;;;35.80;42.30;;;-144.05;22.43;125687.94;6129865;23;20006;-88
2022/07/19 08:35:56;;;;;;;3.90;2.35;;;35.80;41.90;;;-144.05;22.30;125687.94;6105506;23;20010;-86
2022/07/19 08:38:22;;;;;;;7.60;1.88;;;35.90;42.10;;;-144.05;22.13;125687.94;6105311;23;20044;-91
2022/07/19 08:40:52;;;;;;;4.80;1.92;;;36.10;42.00;;;-144.05;21.60;125687.94;6132221;23;20005;-89
2022/07/19 08:43:20;;;;;;;6.95;2.10;;;36.30;40.90;;;-144.05;21.75;125687.94;6129855;23;20379;-88
2022/07/19 08:45:48;;;;;;;10.90;2.15;;;36.60;40.40;;;-144.05;21.21;125687.94;6129497;23;20010;-87
2022/07/19 08:48:15;;;;;;;7.15;2.25;;;36.70;38.80;;;-144.05;21.33;125687.94;6130652;23;20033;-87
2022/07/19 08:50:41;;;;;;;7.38;2.05;;;36.50;38.80;;;-144.05;21.65;125687.94;6130856;23;20002;-86
2022/07/19 08:53:07;;;;;;;10.90;2.55;;;36.50;39.60;;;-144.05;21.65;125687.94;6129608;23;20061;-90
2022/07/19 08:55:33;;;;;;;4.60;2.33;;;36.60;39.80;;;-144.05;20.93;125687.94;6131420;23;20006;-89
2022/07/19 08:58:02;;;;;;;3.20;1.90;;;36.90;38.70;;;-144.05;21.10;125687.94;6104649;23;20045;-90
2022/07/19 09:00:33;;;;;;;3.38;1.90;;;36.90;38.80;;;-144.05;21.26;125687.94;6104683;23;20381;-87
2022/07/19 09:03:06;;;;;;;3.88;1.80;;;36.70;39.10;;;-144.05;21.11;125687.94;6130916;23;20044;-87
2022/07/19 09:05:34;;;;;;;2.47;1.80;;;37.00;38.50;;;-144.05;21.10;125687.94;6104583;23;20006;-90
2022/07/19 09:08:15;;;;;;;5.90;1.88;;;37.00;38.90;;;-144.05;20.73;125687.94;6129270;23;20380;-89
2022/07/19 09:13:35;;;;;;;6.35;2.25;;;37.30;38.50;;;-144.05;20.42;125687.94;6130731;23;20094;-89
2022/07/19 09:16:02;;;;;;;4.70;2.03;;;37.60;36.90;;;-144.05;20.65;125687.94;6105083;23;20006;-88
2022/07/19 09:18:37;;;;;;;3.35;1.75;;;37.70;37.50;;;-144.05;21.31;125687.94;6128937;23;20022;-89
2022/07/19 09:21:07;;;;;;;4.68;1.77;;;38.00;39.50;;;-144.05;20.56;125687.94;6104966;23;20010;-88
2022/07/19 09:23:34;;;;;;;3.13;1.85;;;38.10;37.10;;;-144.05;20.47;125687.94;6128489;23;20037;-90
2022/07/19 09:26:05;;;;;;;2.50;2.10;;;38.20;37.10;;;-144.05;20.89;125687.94;6105052;23;20068;-88
2022/07/19 09:28:35;;;;;;;5.07;2.38;;;38.30;38.00;;;-144.05;20.37;125687.94;6105001;23;20012;-88
2022/07/19 09:31:04;;;;;;;5.07;1.58;;;38.20;36.60;;;-144.05;20.22;125687.94;6130275;23;20085;-87
2022/07/19 09:33:33;;;;;;;4.45;2.05;;;37.90;35.70;;;-144.05;20.42;125687.94;6129221;23;20010;-88
2022/07/19 09:36:10;;;;;;;3.10;1.80;;;37.90;36.20;;;-144.05;19.91;125687.94;6105091;23;20009;-90
2022/07/19 09:38:37;;;;;;;4.65;1.90;;;38.00;35.30;;;-144.05;19.81;125687.94;6105048;23;20002;-88
2022/07/19 09:41:16;;;;;;;5.43;1.83;;;38.10;34.60;;;-144.05;19.60;125687.94;6131447;23;20032;-89
2022/07/19 09:44:05;;;;;;;5.25;1.90;;;38.10;34.30;;;-144.05;19.62;125687.94;6128995;23;20013;-86
2022/07/19 09:46:37;;;;;;;3.47;1.92;;;38.20;34.60;;;-144.05;19.57;125687.94;6130928;23;20006;-85
2022/07/19 09:49:18;;;;;;;4.18;1.70;;;38.40;34.50;;;-144.05;19.80;125687.94;6131305;23;20002;-87
2022/07/19 09:51:53;;;;;;;2.88;1.73;;;38.50;35.60;;;-144.05;19.29;125687.94;6129167;23;20014;-88
2022/07/19 09:54:26;;;;;;;4.10;1.65;;;38.50;33.50;;;-144.05;19.43;125687.94;6131052;23;20013;-88
2022/07/19 09:56:54;;;;;;;4.25;1.98;;;38.60;34.30;;;-144.05;19.65;125687.94;6129687;23;20006;-85
2022/07/19 09:59:23;;;;;;;3.33;1.55;;;38.90;34.70;;;-144.05;19.71;125687.94;6130182;23;20017;-88
2022/07/19 10:01:54;;;;;;;9.73;2.40;;;39.10;35.10;;;-144.05;19.42;125687.94;6129267;23;20006;-84
2022/07/19 10:04:25;;;;;;;8.13;1.92;;;39.20;34.70;;;-144.05;19.23;125687.94;6128892;23;20472;-88
2022/07/19 10:06:53;;;;;;;3.30;1.40;;;39.20;32.90;;;-144.05;19.36;125687.94;6111936;23;20006;-85
2022/07/19 10:09:23;;;;;;;2.63;1.42;;;39.40;33.60;;;-144.05;18.22;125687.94;6140148;23;20010;-87
2022/07/19 10:11:52;;;;;;;3.70;1.50;;;39.10;31.10;;;-144.05;18.59;125687.94;6104562;23;20037;-87
2022/07/19 10:14:17;;;;;;;6.38;1.88;;;39.20;33.00;;;-144.05;18.59;125687.94;6128682;23;20077;-87